createdAt,value
2019-02-09T00:00:47.181Z,8.20
2019-02-09T00:03:17.454Z,8.15
2019-02-09T00:05:46.867Z,8.18
2019-02-09T00:08:16.099Z,8.10
2019-02-09T00:10:46.327Z,8.15
2019-02-09T00:13:15.557Z,8.12
2019-02-09T00:15:44.791Z,8.14
2019-02-09T00:18:14.083Z,8.06
2019-02-09T00:20:43.335Z,8.11
2019-02-09T00:23:12.567Z,8.00
2019-02-09T00:25:41.834Z,8.03
2019-02-09T00:28:11.123Z,8.15
2019-02-09T00:30:40.378Z,8.17
2019-02-09T00:33:09.607Z,8.18
2019-02-09T00:35:39.856Z,8.20
2019-02-09T00:38:09.074Z,8.26
2019-02-09T00:40:38.403Z,8.34
2019-02-09T00:43:07.640Z,8.36
2019-02-09T00:45:36.904Z,8.31
2019-02-09T00:48:06.114Z,8.41
2019-02-09T00:50:36.362Z,8.39
2019-02-09T00:53:05.663Z,8.36
2019-02-09T00:55:34.982Z,8.33
2019-02-09T00:58:04.379Z,8.42
2019-02-09T01:00:33.701Z,8.39
2019-02-09T01:03:02.926Z,8.34
2019-02-09T01:05:43.581Z,8.35
2019-02-09T01:08:12.950Z,8.40
2019-02-09T01:10:42.231Z,8.51
2019-02-09T01:13:11.521Z,8.35
2019-02-09T01:15:40.702Z,8.34
2019-02-09T01:18:09.951Z,8.35
2019-02-09T01:20:39.176Z,8.35
2019-02-09T01:23:08.428Z,8.25
2019-02-09T01:25:37.727Z,8.18
2019-02-09T01:28:07.956Z,8.23
2019-02-09T01:30:37.270Z,8.16
2019-02-09T01:33:06.540Z,8.21
2019-02-09T01:35:35.792Z,8.18
2019-02-09T01:38:05.107Z,8.17
2019-02-09T01:40:34.367Z,8.24
2019-02-09T01:43:03.625Z,8.23
2019-02-09T01:45:33.489Z,8.19
2019-02-09T01:48:02.783Z,8.25
2019-02-09T01:50:33.506Z,8.17
2019-02-09T01:53:02.745Z,8.12
2019-02-09T01:55:31.992Z,8.14
2019-02-09T01:58:01.241Z,8.17
2019-02-09T02:00:34.856Z,8.11
2019-02-09T02:03:04.711Z,8.09
2019-02-09T02:05:33.964Z,8.03
2019-02-09T02:08:03.191Z,7.99
2019-02-09T02:10:34.458Z,8.07
2019-02-09T02:13:06.320Z,8.05
2019-02-09T02:15:35.808Z,8.11
2019-02-09T02:18:05.580Z,8.07
2019-02-09T02:20:34.829Z,8.07
2019-02-09T02:23:05.507Z,8.13
2019-02-09T02:25:34.749Z,8.01
2019-02-09T02:28:04.120Z,7.98
2019-02-09T02:30:40.880Z,8.12
2019-02-09T02:33:10.098Z,8.21
2019-02-09T02:35:39.419Z,8.24
2019-02-09T02:38:09.751Z,8.29
2019-02-09T02:40:38.964Z,8.27
2019-02-09T02:43:08.212Z,8.35
2019-02-09T02:45:37.521Z,8.51
2019-02-09T02:48:07.744Z,8.59
2019-02-09T02:50:37.011Z,8.66
2019-02-09T02:53:06.244Z,8.66
2019-02-09T02:55:35.565Z,8.73
2019-02-09T02:58:05.954Z,8.67
2019-02-09T03:00:35.491Z,8.72
2019-02-09T03:03:05.707Z,8.66
2019-02-09T03:05:34.954Z,8.69
2019-02-09T03:08:05.892Z,8.81
2019-02-09T03:10:36.118Z,8.86
2019-02-09T03:13:05.567Z,8.84
2019-02-09T03:15:36.927Z,8.80
2019-02-09T03:18:06.220Z,8.72
2019-02-09T03:20:35.483Z,8.88
2019-02-09T03:23:05.065Z,8.99
2019-02-09T03:25:35.366Z,8.95
2019-02-09T03:28:05.220Z,9.18
2019-02-09T03:30:46.778Z,9.10
2019-02-09T03:33:05.466Z,9.00
2019-02-09T03:35:34.741Z,9.03
2019-02-09T03:38:03.966Z,9.08
2019-02-09T03:40:33.207Z,9.02
2019-02-09T03:43:02.432Z,9.10
2019-02-09T03:45:33.815Z,9.01
2019-02-09T03:48:03.487Z,9.27
2019-02-09T03:50:33.409Z,9.04
2019-02-09T03:53:02.658Z,8.94
2019-02-09T03:55:31.939Z,8.90
2019-02-09T03:58:01.261Z,8.97
2019-02-09T04:00:31.639Z,9.02
2019-02-09T04:03:01.926Z,8.99
2019-02-09T04:05:31.518Z,9.03
2019-02-09T04:08:00.724Z,9.05
2019-02-09T04:10:30.033Z,8.92
2019-02-09T04:12:59.313Z,9.03
2019-02-09T04:15:29.055Z,9.08
2019-02-09T04:17:58.297Z,9.04
2019-02-09T04:20:27.679Z,9.14
2019-02-09T04:22:57.027Z,8.88
2019-02-09T04:25:26.325Z,8.94
2019-02-09T04:27:55.578Z,8.90
2019-02-09T04:30:29.304Z,9.00
2019-02-09T04:32:58.793Z,9.00
2019-02-09T04:35:28.183Z,9.06
2019-02-09T04:37:58.410Z,9.10
2019-02-09T04:40:29.502Z,9.18
2019-02-09T04:42:58.955Z,9.25
2019-02-09T04:45:29.170Z,9.05
2019-02-09T04:47:59.469Z,8.98
2019-02-09T04:50:28.688Z,9.16
2019-02-09T04:52:58.952Z,9.15
2019-02-09T04:55:29.130Z,9.20
2019-02-09T04:57:58.380Z,9.07
2019-02-09T05:00:29.997Z,8.89
2019-02-09T05:02:59.662Z,8.81
2019-02-09T05:05:29.331Z,8.85
2019-02-09T05:07:58.601Z,8.71
2019-02-09T05:10:27.811Z,8.63
2019-02-09T05:12:57.026Z,8.81
2019-02-09T05:15:28.307Z,8.72
2019-02-09T05:17:58.519Z,8.86
2019-02-09T05:20:27.762Z,8.91
2019-02-09T05:22:57.024Z,8.99
2019-02-09T05:25:26.245Z,8.99
2019-02-09T05:27:55.519Z,8.99
2019-02-09T05:30:27.356Z,9.01
2019-02-09T05:32:56.730Z,8.83
2019-02-09T05:35:28.012Z,8.78
2019-02-09T05:37:57.244Z,8.81
2019-02-09T05:40:27.786Z,8.77
2019-02-09T05:42:57.006Z,8.80
2019-02-09T05:45:29.455Z,8.85
2019-02-09T05:47:58.629Z,8.77
2019-02-09T05:50:27.943Z,8.90
2019-02-09T05:52:57.193Z,8.94
2019-02-09T05:55:26.459Z,8.96
2019-02-09T05:57:55.744Z,8.87
2019-02-09T06:00:34.395Z,8.92
2019-02-09T06:03:04.799Z,9.01
2019-02-09T06:05:34.129Z,9.12
2019-02-09T06:08:03.355Z,8.99
2019-02-09T06:10:32.590Z,9.09
2019-02-09T06:13:01.828Z,9.06
2019-02-09T06:15:32.078Z,9.15
2019-02-09T06:18:01.376Z,9.07
2019-02-09T06:20:31.669Z,9.08
2019-02-09T06:23:00.894Z,9.08
2019-02-09T06:25:30.288Z,9.10
2019-02-09T06:27:59.661Z,9.01
2019-02-09T06:30:33.554Z,9.10
2019-02-09T06:33:02.772Z,9.12
2019-02-09T06:35:33.141Z,8.93
2019-02-09T06:38:02.413Z,8.95
2019-02-09T06:40:33.568Z,8.90
2019-02-09T06:43:03.956Z,8.89
2019-02-09T06:45:33.189Z,8.86
2019-02-09T06:48:25.704Z,8.72
2019-02-09T06:50:56.291Z,8.77
2019-02-09T06:53:25.520Z,8.74
2019-02-09T06:55:55.681Z,8.66
2019-02-09T06:58:25.943Z,8.65
2019-02-09T07:00:55.243Z,8.66
2019-02-09T07:03:25.464Z,8.64
2019-02-09T07:05:54.647Z,8.52
2019-02-09T07:08:24.831Z,8.49
2019-02-09T07:10:54.081Z,8.55
2019-02-09T07:13:23.313Z,8.35
2019-02-09T07:15:52.629Z,8.44
2019-02-09T07:18:22.808Z,8.25
2019-02-09T07:20:52.966Z,8.26
2019-02-09T07:23:23.203Z,8.17
2019-02-09T07:25:52.489Z,8.20
2019-02-09T07:28:21.741Z,8.11
2019-02-09T07:30:50.962Z,8.09
2019-02-09T07:33:21.131Z,8.11
2019-02-09T07:35:50.343Z,8.15
2019-02-09T07:38:19.572Z,8.35
2019-02-09T07:40:48.811Z,8.45
2019-02-09T07:43:18.059Z,8.32
2019-02-09T07:45:47.343Z,8.28
2019-02-09T07:48:16.581Z,8.31
2019-02-09T07:50:45.811Z,8.32
2019-02-09T07:53:15.064Z,8.22
2019-02-09T07:55:44.304Z,8.32
2019-02-09T07:58:13.545Z,8.37
2019-02-09T08:00:43.728Z,8.20
2019-02-09T08:03:12.958Z,8.43
2019-02-09T08:05:42.232Z,8.47
2019-02-09T08:08:13.363Z,8.55
2019-02-09T08:10:43.609Z,8.49
2019-02-09T08:13:13.011Z,8.55
2019-02-09T08:15:42.272Z,8.65
2019-02-09T08:18:11.568Z,8.71
2019-02-09T08:20:40.812Z,8.96
2019-02-09T08:23:11.178Z,9.05
2019-02-09T08:25:42.126Z,9.02
2019-02-09T08:28:15.021Z,9.17
2019-02-09T08:30:51.495Z,9.44
2019-02-09T08:33:20.733Z,9.53
2019-02-09T08:35:49.999Z,9.64
2019-02-09T08:38:19.252Z,9.83
2019-02-09T08:40:48.498Z,9.87
2019-02-09T08:43:17.804Z,10.21
2019-02-09T08:48:21.487Z,10.39
2019-02-09T08:51:10.186Z,10.48
2019-02-09T08:53:58.753Z,10.28
2019-02-09T08:56:47.456Z,10.27
2019-02-09T08:59:16.696Z,9.95
2019-02-09T09:02:05.301Z,10.26
2019-02-09T09:04:34.522Z,10.65
2019-02-09T09:10:31.172Z,10.51
2019-02-09T09:13:19.755Z,10.73
2019-02-09T09:16:09.012Z,10.54
2019-02-09T09:18:50.329Z,10.71
2019-02-09T09:21:19.599Z,10.40
2019-02-09T09:24:08.196Z,10.34
2019-02-09T09:26:56.810Z,10.18
2019-02-09T09:29:45.405Z,10.18
2019-02-09T09:32:14.673Z,10.16
2019-02-09T09:35:03.574Z,10.29
2019-02-09T09:37:32.833Z,10.22
2019-02-09T09:40:40.806Z,10.01
2019-02-09T09:43:29.416Z,10.21
2019-02-09T09:45:58.637Z,10.28
2019-02-09T09:48:27.906Z,10.69
2019-02-09T09:51:16.350Z,10.68
2019-02-09T09:53:45.585Z,10.35
2019-02-09T09:56:14.844Z,10.26
2019-02-09T09:58:44.127Z,10.30
2019-02-09T10:01:32.735Z,10.50
2019-02-09T10:04:02.006Z,10.51
2019-02-09T10:06:31.248Z,10.41
2019-02-09T10:09:19.860Z,10.41
2019-02-09T10:11:49.115Z,10.29
2019-02-09T10:14:37.727Z,10.62
2019-02-09T10:17:06.973Z,10.86
2019-02-09T10:19:48.646Z,11.05
2019-02-09T10:22:30.697Z,11.07
2019-02-09T10:25:11.883Z,10.77
2019-02-09T10:27:41.124Z,10.71
2019-02-09T10:30:30.752Z,10.74
2019-02-09T10:33:19.324Z,10.51
2019-02-09T10:36:08.271Z,10.46
2019-02-09T10:39:17.440Z,10.53
2019-02-09T10:41:46.663Z,10.35
2019-02-09T10:44:35.353Z,10.58
2019-02-09T10:47:23.979Z,10.18
2019-02-09T10:50:33.315Z,10.33
2019-02-09T10:53:21.883Z,10.34
2019-02-09T10:56:10.495Z,10.47
2019-02-09T10:58:39.728Z,10.05
2019-02-09T11:01:28.399Z,10.37
2019-02-09T11:04:17.044Z,10.23
2019-02-09T11:11:09.254Z,10.37
2019-02-09T11:13:57.849Z,10.38
2019-02-09T11:16:46.449Z,10.40
2019-02-09T11:19:28.399Z,10.49
2019-02-09T11:22:09.900Z,10.45
2019-02-09T11:24:53.157Z,10.53
2019-02-09T11:27:34.994Z,10.39
2019-02-09T11:30:16.708Z,10.56
2019-02-09T11:33:02.139Z,10.36
2019-02-09T11:35:41.209Z,10.67
2019-02-09T11:38:22.762Z,10.92
2019-02-09T11:40:52.017Z,10.96
2019-02-09T11:43:21.312Z,11.07
2019-02-09T11:45:50.651Z,10.97
2019-02-09T11:48:39.224Z,11.19
2019-02-09T11:51:27.836Z,11.39
2019-02-09T11:53:57.102Z,11.32
2019-02-09T11:56:45.746Z,11.42
2019-02-09T11:59:34.328Z,11.08
2019-02-09T12:02:22.979Z,11.28
2019-02-09T12:05:11.557Z,11.35
2019-02-09T12:07:40.805Z,11.43
2019-02-09T12:10:50.103Z,11.10
2019-02-09T12:13:19.379Z,10.98
2019-02-09T12:15:48.605Z,11.10
2019-02-09T12:18:29.673Z,11.03
2019-02-09T12:20:58.932Z,10.99
2019-02-09T12:23:28.198Z,10.85
2019-02-09T12:25:57.435Z,10.91
2019-02-09T12:28:46.097Z,10.99
2019-02-09T12:31:15.358Z,10.92
2019-02-09T12:33:44.622Z,10.80
2019-02-09T12:36:13.855Z,10.57
2019-02-09T12:39:02.442Z,10.67
2019-02-09T12:41:51.042Z,10.33
2019-02-09T12:44:39.649Z,10.19
2019-02-09T12:47:28.229Z,9.59
2019-02-09T12:49:57.490Z,9.87
2019-02-09T12:52:26.718Z,10.00
2019-02-09T12:54:55.981Z,9.82
2019-02-09T12:57:25.251Z,9.95
2019-02-09T12:59:54.488Z,10.06
2019-02-09T13:02:23.707Z,9.98
2019-02-09T13:04:52.965Z,10.04
2019-02-09T13:07:22.218Z,10.13
2019-02-09T13:09:51.462Z,10.24
2019-02-09T13:12:20.903Z,10.36
2019-02-09T13:15:50.903Z,10.42
2019-02-09T13:18:20.149Z,10.39
2019-02-09T13:20:49.396Z,10.38
2019-02-09T13:23:37.988Z,10.46
2019-02-09T13:26:26.540Z,10.52
2019-02-09T13:29:15.179Z,10.64
2019-02-09T13:32:03.826Z,10.63
2019-02-09T13:34:33.102Z,10.74
2019-02-09T13:37:02.356Z,10.91
2019-02-09T13:39:31.607Z,10.97
2019-02-09T13:42:20.252Z,10.92
2019-02-09T13:44:49.468Z,10.94
2019-02-09T13:47:38.082Z,11.09
2019-02-09T13:50:27.329Z,11.00
2019-02-09T13:52:56.674Z,11.07
2019-02-09T13:56:05.942Z,11.09
2019-02-09T13:58:54.547Z,11.35
2019-02-09T14:01:23.803Z,11.15
2019-02-09T14:04:12.434Z,11.11
2019-02-09T14:07:01.003Z,11.08
2019-02-09T14:09:49.600Z,11.03
2019-02-09T14:12:38.209Z,10.98
2019-02-09T14:15:27.775Z,10.80
2019-02-09T14:18:16.381Z,10.77
2019-02-09T14:20:45.606Z,10.70
2019-02-09T14:23:34.232Z,10.55
2019-02-09T14:26:03.445Z,10.22
2019-02-09T14:31:11.904Z,9.68
2019-02-09T14:34:00.561Z,9.46
2019-02-09T14:36:49.162Z,9.25
2019-02-09T14:39:18.395Z,9.74
2019-02-09T14:42:06.990Z,9.19
2019-02-09T14:44:55.565Z,9.25
2019-02-09T14:47:24.842Z,9.28
2019-02-09T14:50:14.197Z,9.24
2019-02-09T14:53:02.801Z,9.09
2019-02-09T14:56:12.078Z,9.19
2019-02-09T14:59:00.666Z,9.26
2019-02-09T15:01:29.934Z,9.60
2019-02-09T15:04:18.523Z,9.44
2019-02-09T15:07:07.136Z,9.41
2019-02-09T15:09:55.757Z,9.35
2019-02-09T15:12:25.016Z,9.48
2019-02-09T15:15:32.964Z,9.36
2019-02-09T15:18:42.256Z,9.34
2019-02-09T15:21:23.270Z,9.42
2019-02-09T15:23:52.534Z,9.57
2019-02-09T15:26:41.088Z,9.58
2019-02-09T15:29:29.739Z,9.53
2019-02-09T15:32:18.337Z,9.63
2019-02-09T15:34:47.595Z,9.70
2019-02-09T15:37:36.215Z,9.71
2019-02-09T15:40:24.790Z,9.68
2019-02-09T15:43:13.471Z,9.75
2019-02-09T15:46:02.082Z,9.74
2019-02-09T15:48:50.765Z,9.92
2019-02-09T15:51:39.343Z,10.10
2019-02-09T15:54:08.609Z,9.93
2019-02-09T15:56:57.167Z,9.94
2019-02-09T15:59:45.811Z,9.92
2019-02-09T16:02:36.094Z,9.99
2019-02-09T16:05:43.820Z,9.98
2019-02-09T16:08:32.423Z,9.99
2019-02-09T16:11:01.698Z,10.04
2019-02-09T16:13:30.937Z,9.89
2019-02-09T16:16:19.576Z,10.02
2019-02-09T16:18:48.813Z,9.99
2019-02-09T16:21:31.791Z,10.03
2019-02-09T16:24:01.067Z,10.01
2019-02-09T16:26:30.317Z,10.15
2019-02-09T16:29:19.016Z,10.08
2019-02-09T16:31:48.238Z,10.08
2019-02-09T16:34:17.514Z,10.19
2019-02-09T16:37:06.093Z,10.22
2019-02-09T16:39:54.707Z,10.13
2019-02-09T16:42:43.275Z,10.18
2019-02-09T16:45:43.713Z,10.18
2019-02-09T16:52:06.487Z,10.15
2019-02-09T16:54:55.103Z,10.25
2019-02-09T16:57:43.672Z,10.25
2019-02-09T17:00:53.004Z,10.21
2019-02-09T17:03:41.951Z,10.05
2019-02-09T17:06:30.896Z,9.97
2019-02-09T17:09:19.653Z,9.88
2019-02-09T17:12:08.611Z,9.55
2019-02-09T17:14:57.583Z,9.54
2019-02-09T17:17:46.444Z,9.64
2019-02-09T17:20:27.691Z,9.51
2019-02-09T17:23:08.977Z,9.37
2019-02-09T17:25:38.290Z,9.31
2019-02-09T17:28:47.668Z,9.44
2019-02-09T17:31:36.256Z,9.22
2019-02-09T17:34:05.553Z,9.36
2019-02-09T17:36:54.180Z,9.36
2019-02-09T17:39:42.762Z,9.44
2019-02-09T17:42:12.036Z,9.48
2019-02-09T17:44:41.251Z,9.44
2019-02-09T17:47:10.520Z,9.44
2019-02-09T17:49:59.118Z,9.41
2019-02-09T17:52:28.375Z,9.45
2019-02-09T17:55:18.612Z,9.35
2019-02-09T17:58:27.423Z,9.56
2019-02-09T18:01:15.859Z,9.58
2019-02-09T18:04:04.516Z,9.30
2019-02-09T18:06:33.772Z,9.37
2019-02-09T18:09:22.362Z,9.37
2019-02-09T18:11:51.613Z,9.51
2019-02-09T18:14:40.224Z,9.47
2019-02-09T18:17:09.478Z,9.55
2019-02-09T18:19:58.126Z,9.45
2019-02-09T18:22:46.782Z,9.63
2019-02-09T18:25:35.401Z,9.59
2019-02-09T18:28:23.986Z,9.53
2019-02-09T18:31:12.609Z,9.41
2019-02-09T18:33:41.853Z,9.51
2019-02-09T18:36:30.429Z,9.52
2019-02-09T18:38:59.695Z,9.41
2019-02-09T18:41:48.296Z,9.60
2019-02-09T18:44:36.905Z,9.40
2019-02-09T18:47:25.494Z,9.46
2019-02-09T18:49:54.760Z,9.61
2019-02-09T18:52:43.357Z,9.67
2019-02-09T18:55:52.731Z,9.47
2019-02-09T18:58:21.998Z,9.53
2019-02-09T19:03:46.499Z,9.60
2019-02-09T19:09:48.318Z,9.66
2019-02-09T19:12:17.603Z,9.67
2019-02-09T19:14:46.837Z,9.52
2019-02-09T19:17:35.425Z,9.53
2019-02-09T19:20:17.037Z,9.55
2019-02-09T19:22:58.692Z,9.45
2019-02-09T19:25:40.368Z,9.46
2019-02-09T19:28:22.093Z,9.46
2019-02-09T19:31:03.521Z,9.54
2019-02-09T19:33:45.177Z,9.46
2019-02-09T19:36:14.469Z,9.33
2019-02-09T19:38:43.775Z,9.37
2019-02-09T19:41:13.039Z,9.28
2019-02-09T19:44:01.635Z,9.28
2019-02-09T19:46:30.891Z,9.28
2019-02-09T19:49:19.479Z,9.37
2019-02-09T19:52:08.161Z,9.28
2019-02-09T19:54:56.744Z,9.34
2019-02-09T19:57:45.343Z,9.34
2019-02-09T20:00:34.989Z,9.38
2019-02-09T20:06:36.907Z,9.42
2019-02-09T20:09:46.190Z,9.59
2019-02-09T20:12:34.803Z,9.57
2019-02-09T20:15:45.739Z,9.24
2019-02-09T20:18:34.409Z,9.12
2019-02-09T20:21:15.797Z,9.33
2019-02-09T20:23:57.522Z,9.16
2019-02-09T20:26:26.767Z,9.18
2019-02-09T20:29:17.023Z,9.21
2019-02-09T20:31:46.269Z,8.98
2019-02-09T20:34:36.590Z,9.10
2019-02-09T20:40:55.235Z,9.03
2019-02-09T20:46:56.843Z,8.91
2019-02-09T20:49:45.435Z,8.89
2019-02-09T20:52:14.674Z,8.97
2019-02-09T20:55:03.274Z,8.99
2019-02-09T20:57:32.520Z,9.09
2019-02-09T21:00:40.472Z,9.12
2019-02-09T21:03:29.260Z,9.14
2019-02-09T21:05:58.517Z,9.11
2019-02-09T21:08:27.796Z,9.07
2019-02-09T21:14:29.704Z,9.05
2019-02-09T21:17:18.349Z,9.05
2019-02-09T21:19:47.750Z,9.01
2019-02-09T21:22:29.140Z,9.05
2019-02-09T21:24:58.387Z,8.99
2019-02-09T21:27:48.619Z,9.05
2019-02-09T21:30:57.964Z,8.99
2019-02-09T21:33:28.869Z,9.06
2019-02-09T21:36:17.542Z,9.06
2019-02-09T21:39:33.766Z,9.09
2019-02-09T21:42:36.347Z,9.06
2019-02-09T21:45:45.822Z,9.17
2019-02-09T21:48:15.051Z,9.17
2019-02-09T21:53:57.978Z,9.23
2019-02-09T21:56:46.588Z,9.20
2019-02-09T21:59:35.162Z,9.25
2019-02-09T22:02:44.453Z,9.25
2019-02-09T22:05:33.043Z,9.39
2019-02-09T22:08:21.650Z,9.39
2019-02-09T22:11:10.309Z,9.38
2019-02-09T22:13:58.966Z,9.43
2019-02-09T22:16:47.627Z,9.37
2019-02-09T22:19:36.349Z,9.32
2019-02-09T22:22:39.074Z,9.30
2019-02-09T22:25:20.711Z,9.36
2019-02-09T22:28:29.999Z,9.36
2019-02-09T22:30:59.272Z,9.38
2019-02-09T22:33:48.680Z,9.32
2019-02-09T22:36:57.332Z,9.43
2019-02-09T22:39:45.996Z,9.41
2019-02-09T22:42:15.191Z,9.35
2019-02-09T22:44:44.449Z,9.34
2019-02-09T22:47:33.023Z,9.37
2019-02-09T22:50:44.023Z,9.41
2019-02-09T22:53:32.594Z,9.41
2019-02-09T22:56:22.907Z,9.35
2019-02-09T22:59:11.491Z,9.35
2019-02-09T23:02:00.081Z,9.41
2019-02-09T23:05:09.441Z,9.40
2019-02-09T23:07:58.042Z,9.41
2019-02-09T23:10:46.634Z,9.45
2019-02-09T23:16:23.519Z,9.43
2019-02-09T23:18:52.771Z,9.55
2019-02-09T23:21:22.124Z,9.49
2019-02-09T23:24:10.715Z,9.42
2019-02-09T23:26:59.298Z,9.47
2019-02-09T23:29:47.863Z,9.46
2019-02-09T23:32:36.356Z,9.44
2019-02-09T23:35:24.963Z,9.48
2019-02-09T23:37:54.182Z,9.52
2019-02-09T23:40:42.895Z,9.58
2019-02-09T23:43:31.581Z,9.46
2019-02-09T23:46:00.847Z,9.48
2019-02-09T23:48:49.769Z,9.53
2019-02-09T23:51:38.387Z,9.54
2019-02-09T23:54:07.616Z,9.51
2019-02-09T23:56:56.211Z,9.56
2019-02-09T23:59:25.490Z,9.60
